Time;durP1;ratioP1;P1;durP2;ratioP2;P2;SDS_P1;SDS_P2;PMS_P1;PMS_P2;Temp;Humidity;BMP_temperature;BMP_pressure;BME280_temperature;BME280_humidity;BME280_pressure;Samples;Min_cycle;Max_cycle;Signal;HPM_P1;HPM_P2
2024/02/05 00:02:38;;;;;;;25.23;5.68;;;;;;;10.82;100.00;101921.84;4764720;30;20067;-66
2024/02/05 00:05:26;;;;;;;19.08;4.55;;;;;;;10.84;100.00;101919.69;4770246;30;20081;-67
2024/02/05 00:08:14;;;;;;;24.05;5.43;;;;;;;10.82;100.00;101916.38;4757873;30;20146;-67
2024/02/05 00:11:03;;;;;;;23.70;5.50;;;;;;;10.82;100.00;101910.94;4754304;30;20060;-67
2024/02/05 00:13:51;;;;;;;25.15;6.25;;;;;;;10.82;100.00;101916.38;4752141;30;20082;-67
2024/02/05 00:16:39;;;;;;;20.85;5.10;;;;;;;10.81;100.00;101921.00;4764631;30;20049;-67
2024/02/05 00:19:27;;;;;;;25.17;6.03;;;;;;;10.83;100.00;101921.59;4753054;30;20056;-67
2024/02/05 00:22:15;;;;;;;26.60;6.13;;;;;;;10.82;100.00;101924.56;4757191;30;20056;-67
2024/02/05 00:25:03;;;;;;;21.95;5.72;;;;;;;10.80;100.00;101916.66;4752087;30;20417;-67
2024/02/05 00:27:52;;;;;;;25.73;6.05;;;;;;;10.79;100.00;101928.59;4753152;30;20052;-67
2024/02/05 00:30:40;;;;;;;25.45;6.10;;;;;;;10.78;100.00;101926.13;4764743;30;20052;-66
2024/02/05 00:33:29;;;;;;;26.75;6.20;;;;;;;10.78;100.00;101932.41;4764283;30;20105;-66
2024/02/05 00:36:17;;;;;;;28.23;6.32;;;;;;;10.77;100.00;101919.00;4739646;30;20045;-66
2024/02/05 00:39:05;;;;;;;20.85;5.13;;;;;;;10.77;100.00;101929.91;4752748;30;20091;-66
2024/02/05 00:41:56;;;;;;;26.42;5.60;;;;;;;10.76;100.00;101933.72;4752660;30;20134;-66
2024/02/05 00:44:44;;;;;;;28.00;6.43;;;;;;;10.75;100.00;101927.44;4740463;30;20539;-66
2024/02/05 00:47:32;;;;;;;24.45;5.72;;;;;;;10.77;100.00;101938.09;4738760;30;20060;-66
2024/02/05 00:50:20;;;;;;;25.70;5.35;;;;;;;10.75;100.00;101948.41;4751436;30;20604;-66
2024/02/05 00:53:08;;;;;;;28.73;6.95;;;;;;;10.73;100.00;101945.13;4751387;30;20360;-66
2024/02/05 00:55:56;;;;;;;21.80;5.10;;;;;;;10.72;100.00;101944.28;4751938;30;20056;-66
2024/02/05 00:58:45;;;;;;;33.55;7.07;;;;;;;10.68;100.00;101942.25;4735220;30;20155;-66
2024/02/05 01:01:33;;;;;;;25.55;5.60;;;;;;;10.66;100.00;101940.63;4751730;30;20057;-66
2024/02/05 01:04:21;;;;;;;21.92;5.72;;;;;;;10.66;100.00;101932.44;4753542;30;20066;-65
2024/02/05 01:07:09;;;;;;;32.63;6.60;;;;;;;10.62;100.00;101935.88;4752866;30;20067;-66
2024/02/05 01:09:57;;;;;;;27.63;6.45;;;;;;;10.60;100.00;101940.75;4751391;30;20048;-67
2024/02/05 01:12:45;;;;;;;24.30;5.93;;;;;;;10.58;100.00;101942.88;4741396;30;20071;-58
2024/02/05 01:15:34;;;;;;;33.90;7.38;;;;;;;10.55;100.00;101940.66;4752895;30;20048;-61
2024/02/05 01:18:22;;;;;;;31.13;6.88;;;;;;;10.52;100.00;101933.78;4751341;30;20076;-66
2024/02/05 01:21:10;;;;;;;28.73;6.43;;;;;;;10.49;100.00;101939.72;4751087;30;20589;-66
2024/02/05 01:23:58;;;;;;;29.88;7.22;;;;;;;10.48;100.00;101940.78;4769164;30;20056;-59
2024/02/05 01:26:46;;;;;;;33.08;7.03;;;;;;;10.48;100.00;101938.03;4755649;30;20056;-62
2024/02/05 01:29:34;;;;;;;28.65;6.38;;;;;;;10.47;100.00;101939.13;4762434;30;20056;-66
2024/02/05 01:32:22;;;;;;;24.42;6.05;;;;;;;10.48;100.00;101924.41;4723979;30;20426;-67
2024/02/05 01:35:10;;;;;;;26.48;6.88;;;;;;;10.45;100.00;101924.91;4735770;30;20239;-67
2024/02/05 01:37:58;;;;;;;28.08;5.65;;;;;;;10.44;100.00;101928.72;4739111;30;20059;-67
2024/02/05 01:40:46;;;;;;;32.47;7.32;;;;;;;10.39;100.00;101934.03;4752277;30;20056;-67
2024/02/05 01:43:34;;;;;;;25.73;6.30;;;;;;;10.41;100.00;101934.63;4751616;30;20056;-66
2024/02/05 01:46:23;;;;;;;25.17;6.28;;;;;;;10.40;100.00;101924.81;4750328;30;20120;-66
2024/02/05 01:49:12;;;;;;;30.40;6.20;;;;;;;10.39;100.00;101929.44;4740854;30;20523;-66
2024/02/05 01:52:01;;;;;;;36.00;7.70;;;;;;;10.38;100.00;101926.94;4750591;30;20125;-67
2024/02/05 01:54:49;;;;;;;32.20;6.80;;;;;;;10.36;100.00;101912.72;4750477;30;20048;-67
2024/02/05 01:57:38;;;;;;;32.40;6.35;;;;;;;10.40;100.00;101922.09;4735603;30;20053;-67
2024/02/05 02:00:26;;;;;;;27.38;5.60;;;;;;;10.42;100.00;101911.78;4737785;30;20060;-66
2024/02/05 02:03:14;;;;;;;32.60;7.68;;;;;;;10.42;100.00;101914.50;4744500;30;20498;-68
2024/02/05 02:06:03;;;;;;;31.48;7.45;;;;;;;10.34;100.00;101909.41;4754924;30;20063;-67
2024/02/05 02:08:52;;;;;;;32.63;7.35;;;;;;;10.33;100.00;101905.84;4747483;30;20120;-67
2024/02/05 02:11:43;;;;;;;35.20;6.75;;;;;;;10.32;100.00;101911.53;4731018;30;20058;-67
2024/02/05 02:14:31;;;;;;;29.33;7.05;;;;;;;10.34;100.00;101915.72;4755487;30;20426;-67
2024/02/05 02:17:22;;;;;;;35.30;7.38;;;;;;;10.34;100.00;101914.84;4755633;30;20053;-68
2024/02/05 02:20:11;;;;;;;30.75;7.53;;;;;;;10.33;100.00;101908.59;4752884;30;20109;-68
2024/02/05 02:23:06;;;;;;;36.40;7.07;;;;;;;10.31;100.00;101915.34;4753728;30;20048;-67
2024/02/05 02:25:54;;;;;;;31.02;6.85;;;;;;;10.32;100.00;101908.81;4753934;30;20044;-67
2024/02/05 02:28:42;;;;;;;39.80;8.45;;;;;;;10.30;100.00;101913.69;4744561;30;20056;-67
2024/02/05 02:31:32;;;;;;;29.60;6.88;;;;;;;10.30;100.00;101906.34;4738231;30;20403;-67
2024/02/05 02:34:29;;;;;;;31.10;6.70;;;;;;;10.29;100.00;101917.47;4755605;30;20060;-67
2024/02/05 02:37:19;;;;;;;28.08;6.95;;;;;;;10.27;100.00;101919.56;4755937;30;20548;-67
2024/02/05 02:40:09;;;;;;;31.67;6.60;;;;;;;10.26;100.00;101907.84;4742576;30;20044;-67
2024/02/05 02:43:02;;;;;;;30.63;6.28;;;;;;;10.27;100.00;101914.97;4753094;30;20054;-66
2024/02/05 02:45:52;;;;;;;32.88;6.65;;;;;;;10.26;100.00;101907.03;4750452;30;20064;-66
2024/02/05 02:48:40;;;;;;;26.75;7.93;;;;;;;10.22;100.00;101912.97;4754022;30;20056;-67
2024/02/05 02:51:28;;;;;;;28.38;6.53;;;;;;;10.23;100.00;101909.16;4767828;30;20048;-66
2024/02/05 02:54:16;;;;;;;30.05;7.15;;;;;;;10.22;100.00;101902.06;4753684;30;20068;-66
2024/02/05 02:57:04;;;;;;;34.13;7.40;;;;;;;10.22;100.00;101902.06;4754363;30;20070;-67
2024/02/05 02:59:54;;;;;;;31.73;6.97;;;;;;;10.22;100.00;101895.75;4754068;30;20098;-66
2024/02/05 03:02:42;;;;;;;29.27;7.07;;;;;;;10.21;100.00;101905.03;4752936;30;20052;-67
2024/02/05 03:05:31;;;;;;;34.28;6.72;;;;;;;10.18;100.00;101903.59;4753193;30;20138;-66
2024/02/05 03:08:19;;;;;;;26.88;6.22;;;;;;;10.20;100.00;101917.00;4754564;30;20057;-66
2024/02/05 03:11:08;;;;;;;26.98;6.82;;;;;;;10.19;100.00;101891.63;4751705;30;20048;-67
2024/02/05 03:13:56;;;;;;;33.85;7.60;;;;;;;10.21;100.00;101903.13;4754391;30;20052;-66
2024/02/05 03:16:44;;;;;;;31.33;7.53;;;;;;;10.19;100.00;101896.25;4753941;30;20063;-66
2024/02/05 03:19:33;;;;;;;36.63;7.57;;;;;;;10.20;100.00;101887.84;4747891;30;20060;-67
2024/02/05 03:22:22;;;;;;;27.45;6.20;;;;;;;10.19;100.00;101891.63;4736877;30;20056;-66
2024/02/05 03:25:12;;;;;;;33.15;7.38;;;;;;;10.21;100.00;101897.66;4760273;30;20064;-66
2024/02/05 03:28:00;;;;;;;30.98;8.15;;;;;;;10.19;100.00;101897.06;4744609;30;20520;-67
2024/02/05 03:30:48;;;;;;;33.85;7.40;;;;;;;10.20;100.00;101904.19;4753044;30;20063;-66
2024/02/05 03:33:37;;;;;;;32.92;7.53;;;;;;;10.16;100.00;101892.13;4742343;30;20060;-66
2024/02/05 03:36:25;;;;;;;43.28;8.27;;;;;;;10.13;100.00;101903.50;4753765;30;20052;-67
2024/02/05 03:39:13;;;;;;;33.50;6.80;;;;;;;10.12;100.00;101901.00;4752264;30;20044;-67
2024/02/05 03:42:01;;;;;;;36.70;8.00;;;;;;;10.12;100.00;101912.72;4724702;30;20072;-67
2024/02/05 03:44:49;;;;;;;28.90;6.15;;;;;;;10.14;100.00;101913.31;4753392;30;20186;-66
2024/02/05 03:47:37;;;;;;;32.40;6.80;;;;;;;10.15;100.00;101917.72;4741362;30;20113;-66
2024/02/05 03:50:25;;;;;;;32.92;6.47;;;;;;;10.20;100.00;101917.00;4752557;30;20045;-66
2024/02/05 03:53:13;;;;;;;36.38;8.23;;;;;;;10.13;100.00;101919.84;4741995;30;20127;-68
2024/02/05 03:56:01;;;;;;;30.25;6.95;;;;;;;10.13;100.00;101914.38;4754099;30;20060;-67
2024/02/05 03:58:49;;;;;;;37.13;8.32;;;;;;;10.12;100.00;101931.78;4739997;30;20174;-68
2024/02/05 04:01:37;;;;;;;28.70;7.10;;;;;;;10.12;100.00;101923.59;4752155;30;20048;-68
2024/02/05 04:04:25;;;;;;;36.50;8.05;;;;;;;10.10;100.00;101920.31;4753579;30;20053;-67
2024/02/05 04:07:14;;;;;;;35.75;7.80;;;;;;;10.09;100.00;101920.53;4753698;30;20064;-67
2024/02/05 04:10:02;;;;;;;33.60;7.78;;;;;;;10.12;100.00;101931.78;4753331;30;20506;-67
2024/02/05 04:12:50;;;;;;;39.90;7.90;;;;;;;10.10;100.00;101920.31;4752088;30;20044;-66
2024/02/05 04:15:38;;;;;;;29.67;6.38;;;;;;;10.11;100.00;101921.97;4753532;30;20063;-66
2024/02/05 04:18:26;;;;;;;33.85;7.15;;;;;;;10.10;100.00;101912.16;4766055;30;20064;-67
2024/02/05 04:21:14;;;;;;;26.83;5.85;;;;;;;10.13;100.00;101913.56;4736306;30;20052;-67
2024/02/05 04:24:02;;;;;;;36.10;7.15;;;;;;;10.11;100.00;101916.50;4750832;30;20101;-67
2024/02/05 04:26:50;;;;;;;27.17;6.03;;;;;;;10.13;100.00;101919.84;4753278;30;20145;-67
2024/02/05 04:29:40;;;;;;;32.15;7.00;;;;;;;10.13;100.00;101916.28;4744131;30;20193;-67
2024/02/05 04:32:30;;;;;;;30.00;6.70;;;;;;;10.16;100.00;101916.63;4752763;30;20514;-66
2024/02/05 04:35:18;;;;;;;30.55;7.03;;;;;;;10.13;100.00;101913.56;4753271;30;20083;-67
2024/02/05 04:38:06;;;;;;;36.13;8.43;;;;;;;10.14;100.00;101918.75;4753017;30;20048;-67
2024/02/05 04:40:54;;;;;;;28.20;7.35;;;;;;;10.10;100.00;101914.03;4740864;30;20048;-67
2024/02/05 04:43:42;;;;;;;30.73;7.10;;;;;;;10.08;100.00;101911.56;4750807;30;20177;-67
2024/02/05 04:46:30;;;;;;;40.00;7.63;;;;;;;10.08;100.00;101914.28;4752112;30;20479;-67
2024/02/05 04:49:18;;;;;;;26.30;5.97;;;;;;;10.08;100.00;101918.88;4752981;30;20529;-67
2024/02/05 04:52:06;;;;;;;23.70;5.93;;;;;;;10.07;100.00;101909.88;4735399;30;20448;-67
2024/02/05 04:54:54;;;;;;;29.92;7.50;;;;;;;10.08;100.00;101922.44;4749952;30;20052;-67
2024/02/05 04:57:48;;;;;;;28.80;6.63;;;;;;;10.10;100.00;101912.16;4752133;30;20115;-67
2024/02/05 05:00:37;;;;;;;31.13;7.10;;;;;;;10.07;100.00;101907.16;4748807;30;20498;-67
2024/02/05 05:03:25;;;;;;;25.40;6.60;;;;;;;10.08;100.00;101911.56;4750330;30;20062;-67
2024/02/05 05:06:13;;;;;;;32.97;7.13;;;;;;;10.04;100.00;101902.19;4752795;30;20060;-67
2024/02/05 05:09:02;;;;;;;36.33;6.95;;;;;;;10.02;100.00;101907.03;4752575;30;20135;-66
2024/02/05 05:11:51;;;;;;;30.58;7.22;;;;;;;10.01;100.00;101910.84;4752217;30;20418;-67
2024/02/05 05:14:41;;;;;;;26.63;5.78;;;;;;;10.03;100.00;101908.72;4739994;30;20186;-67
2024/02/05 05:17:29;;;;;;;30.10;7.00;;;;;;;10.01;100.00;101911.66;4764304;30;20048;-67
2024/02/05 05:20:17;;;;;;;32.50;7.00;;;;;;;10.00;100.00;101909.16;4759599;30;20068;-66
2024/02/05 05:23:05;;;;;;;29.52;7.13;;;;;;;10.00;100.00;101906.44;4750682;30;20056;-66
2024/02/05 05:25:53;;;;;;;29.38;6.93;;;;;;;10.02;100.00;101904.31;4764122;30;20099;-66
2024/02/05 05:28:43;;;;;;;30.70;6.85;;;;;;;10.02;100.00;101912.50;4769487;30;20075;-61
2024/02/05 05:31:31;;;;;;;29.58;6.45;;;;;;;10.04;100.00;101899.47;4757910;30;20249;-66
2024/02/05 05:34:22;;;;;;;30.67;6.75;;;;;;;10.02;100.00;101901.59;4761025;30;20115;-67
2024/02/05 05:37:10;;;;;;;30.13;8.05;;;;;;;9.99;100.00;101902.91;4765149;30;20060;-59
2024/02/05 05:39:59;;;;;;;32.45;7.50;;;;;;;9.99;100.00;101899.34;4767779;30;20063;-62
2024/02/05 05:42:47;;;;;;;29.63;7.25;;;;;;;10.00;100.00;101898.28;4763947;30;20060;-66
2024/02/05 05:45:35;;;;;;;22.85;7.00;;;;;;;10.00;100.00;101901.00;4764513;30;20067;-64
2024/02/05 05:48:24;;;;;;;34.30;7.05;;;;;;;10.01;100.00;101899.97;4764133;30;20053;-67
2024/02/05 05:51:14;;;;;;;33.80;7.97;;;;;;;9.98;100.00;101894.97;4762612;30;20073;-67
2024/02/05 05:54:03;;;;;;;28.80;7.28;;;;;;;9.95;100.00;101901.72;4722768;30;20132;-68
2024/02/05 05:56:51;;;;;;;33.70;7.57;;;;;;;9.96;100.00;101902.56;4750186;30;20190;-67
2024/02/05 05:59:39;;;;;;;29.00;7.18;;;;;;;9.94;100.00;101889.19;4751836;30;20292;-68
2024/02/05 06:02:28;;;;;;;24.20;6.97;;;;;;;9.98;100.00;101884.94;4764282;30;20064;-66
2024/02/05 06:05:16;;;;;;;33.65;7.13;;;;;;;9.94;100.00;101874.75;4762476;30;20059;-67
2024/02/05 06:08:04;;;;;;;30.95;8.07;;;;;;;9.92;100.00;101880.41;4751981;30;20057;-66
2024/02/05 06:10:52;;;;;;;36.42;7.20;;;;;;;9.96;100.00;101875.34;4740194;30;20146;-67
2024/02/05 06:13:42;;;;;;;29.92;8.48;;;;;;;9.94;100.00;101882.91;4738206;30;20110;-67
2024/02/05 06:16:30;;;;;;;30.83;7.80;;;;;;;9.93;100.00;101883.97;4737679;30;20055;-67
2024/02/05 06:19:18;;;;;;;29.75;6.88;;;;;;;9.93;100.00;101881.25;4750940;30;20281;-67
2024/02/05 06:22:06;;;;;;;33.38;7.22;;;;;;;9.95;100.00;101869.03;4750578;30;20060;-67
2024/02/05 06:24:55;;;;;;;23.30;6.90;;;;;;;9.92;100.00;101874.16;4738780;30;20060;-66
2024/02/05 06:27:43;;;;;;;30.05;7.13;;;;;;;9.92;100.00;101872.25;4750042;30;20063;-66
2024/02/05 06:30:31;;;;;;;31.52;7.40;;;;;;;9.90;100.00;101876.28;4752119;30;20068;-66
2024/02/05 06:33:19;;;;;;;36.55;8.40;;;;;;;9.89;100.00;101894.50;4744744;30;20092;-67
2024/02/05 06:36:09;;;;;;;46.47;8.98;;;;;;;9.86;100.00;101892.28;4750522;30;20091;-67
2024/02/05 06:38:58;;;;;;;32.67;8.18;;;;;;;9.86;100.00;101891.41;4737776;30;20067;-67
2024/02/05 06:41:46;;;;;;;32.53;8.38;;;;;;;9.79;100.00;101897.81;4750783;30;20063;-66
2024/02/05 06:44:34;;;;;;;48.80;9.57;;;;;;;9.78;100.00;101896.16;4735285;30;20051;-65
2024/02/05 06:47:22;;;;;;;34.78;8.23;;;;;;;9.77;100.00;101894.50;4766317;29;20135;-65
2024/02/05 06:50:10;;;;;;;36.95;8.60;;;;;;;9.74;100.00;101891.41;4754260;30;20064;-66
2024/02/05 06:52:58;;;;;;;34.92;8.57;;;;;;;9.72;100.00;101878.06;4749031;30;20049;-66
2024/02/05 06:55:46;;;;;;;35.53;8.57;;;;;;;9.76;100.00;101878.41;4737376;30;20056;-65
2024/02/05 06:58:34;;;;;;;28.15;7.80;;;;;;;9.78;100.00;101885.25;4765858;30;20060;-66
2024/02/05 07:01:22;;;;;;;34.70;8.05;;;;;;;9.80;100.00;101891.31;4736986;30;20656;-66
2024/02/05 07:04:10;;;;;;;38.63;7.95;;;;;;;9.81;100.00;101892.13;4743605;30;20417;-66
2024/02/05 07:06:58;;;;;;;30.38;7.57;;;;;;;9.79;100.00;101897.81;4761429;30;20049;-67
2024/02/05 07:09:51;;;;;;;38.35;8.68;;;;;;;9.78;100.00;101904.31;4757215;30;20116;-69
2024/02/05 07:12:39;;;;;;;30.98;7.85;;;;;;;9.73;100.00;101893.31;4095614;30;10000843;-67
2024/02/05 07:15:27;;;;;;;35.47;8.70;;;;;;;9.76;100.00;101903.72;4760589;30;20071;-66
2024/02/05 07:18:15;;;;;;;36.25;8.52;;;;;;;9.75;100.00;101906.69;4759214;30;20433;-67
2024/02/05 07:21:04;;;;;;;30.73;7.80;;;;;;;9.74;100.00;101905.88;4780859;30;20055;-66
2024/02/05 07:23:53;;;;;;;40.60;9.30;;;;;;;9.76;100.00;101911.06;4759644;30;20091;-67
2024/02/05 07:26:41;;;;;;;32.33;7.38;;;;;;;9.76;100.00;101913.78;4751272;30;20470;-67
2024/02/05 07:29:29;;;;;;;27.45;7.22;;;;;;;9.77;100.00;101905.41;4752702;30;20063;-66
2024/02/05 07:32:17;;;;;;;27.77;7.13;;;;;;;9.76;100.00;101914.59;4750578;30;20143;-67
2024/02/05 07:35:06;;;;;;;32.13;8.55;;;;;;;9.77;100.00;101916.28;4748865;30;20075;-67
2024/02/05 07:37:54;;;;;;;32.35;8.32;;;;;;;9.73;100.00;101931.41;4737895;30;20048;-66
2024/02/05 07:40:42;;;;;;;39.05;8.02;;;;;;;9.76;100.00;101924.66;4750112;30;20055;-66
2024/02/05 07:43:32;;;;;;;231.02;30.67;;;;;;;9.78;100.00;101922.53;4744094;30;20053;-66
2024/02/05 07:46:20;;;;;;;35.67;9.20;;;;;;;9.78;100.00;101923.38;4747795;30;20139;-65
2024/02/05 07:49:09;;;;;;;35.75;8.63;;;;;;;9.77;100.00;101932.59;4762185;30;20052;-67
2024/02/05 07:51:57;;;;;;;31.48;9.07;;;;;;;9.79;100.00;101935.09;4748838;30;20124;-67
2024/02/05 07:54:45;;;;;;;38.15;8.35;;;;;;;9.68;100.00;101934.00;4749574;30;20103;-68
2024/02/05 07:57:33;;;;;;;47.85;10.30;;;;;;;9.64;100.00;101930.09;4751358;30;20052;-64
2024/02/05 08:00:21;;;;;;;37.65;10.02;;;;;;;9.59;100.00;101930.78;4757505;30;20131;-66
2024/02/05 08:03:10;;;;;;;33.53;9.13;;;;;;;9.58;100.00;101936.50;4752297;30;20052;-66
2024/02/05 08:06:03;;;;;;;33.55;8.20;;;;;;;9.57;100.00;101941.13;4768288;30;20056;-66
2024/02/05 08:08:51;;;;;;;35.38;9.05;;;;;;;9.62;100.00;101945.84;4769271;30;20052;-66
2024/02/05 08:11:40;;;;;;;29.63;8.73;;;;;;;9.65;100.00;101945.38;4756788;30;20144;-66
2024/02/05 08:14:28;;;;;;;41.28;8.95;;;;;;;9.63;100.00;101950.22;4751452;30;20076;-66
2024/02/05 08:17:16;;;;;;;33.05;8.52;;;;;;;9.69;100.00;101946.56;4734820;30;20053;-66
2024/02/05 08:20:04;;;;;;;30.67;8.45;;;;;;;9.71;100.00;101955.31;4746071;30;20552;-66
2024/02/05 08:22:53;;;;;;;32.90;8.93;;;;;;;9.70;100.00;101947.41;4763706;30;20060;-66
2024/02/05 08:25:41;;;;;;;36.42;9.45;;;;;;;9.73;100.00;101949.66;4752899;30;20139;-66
2024/02/05 08:28:29;;;;;;;37.58;9.05;;;;;;;9.73;100.00;101947.75;4739835;30;20060;-66
2024/02/05 08:31:17;;;;;;;44.40;10.05;;;;;;;9.71;100.00;101938.16;4752117;30;20585;-67
2024/02/05 08:34:05;;;;;;;35.47;8.68;;;;;;;9.72;100.00;101929.78;4750173;30;20106;-67
2024/02/05 08:36:53;;;;;;;31.95;8.77;;;;;;;9.71;100.00;101936.25;4751268;30;20064;-67
2024/02/05 08:39:41;;;;;;;38.40;10.20;;;;;;;9.71;100.00;101932.72;4749998;30;20060;-67
2024/02/05 08:42:31;;;;;;;33.70;9.15;;;;;;;9.73;100.00;101941.47;4740740;30;20079;-66
2024/02/05 08:45:22;;;;;;;36.40;9.27;;;;;;;9.77;100.00;101927.16;4751426;30;20055;-65
2024/02/05 08:48:10;;;;;;;31.52;9.20;;;;;;;9.76;100.00;101936.38;4751396;30;20075;-64
2024/02/05 08:50:58;;;;;;;35.20;9.52;;;;;;;9.87;100.00;101923.03;4751756;30;20052;-67
2024/02/05 08:53:46;;;;;;;32.17;8.43;;;;;;;9.84;100.00;101920.75;4739517;30;20122;-67
2024/02/05 08:56:34;;;;;;;40.35;9.90;;;;;;;9.81;100.00;101925.66;4733114;30;20139;-66
2024/02/05 08:59:22;;;;;;;31.70;8.38;;;;;;;9.78;100.00;101931.53;4722205;30;20049;-66
2024/02/05 09:02:14;;;;;;;52.00;9.95;;;;;;;9.80;100.00;101937.56;4734713;30;20059;-66
2024/02/05 09:05:04;;;;;;;42.63;8.18;;;;;;;9.78;100.00;101931.53;4739317;30;20070;-67
2024/02/05 09:07:52;;;;;;;35.20;8.60;;;;;;;9.80;100.00;101929.41;4744754;30;20060;-67
2024/02/05 09:10:41;;;;;;;36.40;8.75;;;;;;;9.85;100.00;101925.16;4722512;30;20132;-67
2024/02/05 09:13:28;;;;;;;38.55;8.57;;;;;;;9.84;100.00;101932.50;4734982;30;20135;-66
2024/02/05 09:16:16;;;;;;;35.90;9.18;;;;;;;9.83;100.00;101925.38;4735072;30;20438;-67
2024/02/05 09:19:05;;;;;;;67.50;11.57;;;;;;;9.81;100.00;101927.50;4761052;30;20097;-67
2024/02/05 09:21:54;;;;;;;33.13;8.20;;;;;;;9.82;100.00;101938.19;4763627;30;20103;-67
2024/02/05 09:24:43;;;;;;;44.33;8.75;;;;;;;9.85;100.00;101930.59;4737309;30;20055;-66
2024/02/05 09:27:32;;;;;;;40.20;8.80;;;;;;;9.86;100.00;101937.69;4749353;30;20133;-66
2024/02/05 09:30:21;;;;;;;45.13;7.82;;;;;;;9.86;100.00;101929.53;4750699;30;20051;-66
2024/02/05 09:33:09;;;;;;;39.88;8.35;;;;;;;9.95;100.00;101937.09;4755725;30;20186;-66
2024/02/05 09:35:57;;;;;;;30.17;7.75;;;;;;;9.90;100.00;101947.06;4744559;30;20048;-66
2024/02/05 09:38:45;;;;;;;37.42;8.85;;;;;;;9.89;100.00;101940.78;4762362;30;20050;-66
2024/02/05 09:41:34;;;;;;;37.72;8.50;;;;;;;9.84;100.00;101943.41;4750573;30;20102;-62
2024/02/05 09:44:23;;;;;;;41.03;8.05;;;;;;;9.90;100.00;101937.00;4750509;30;20037;-64
2024/02/05 09:47:12;;;;;;;32.97;8.13;;;;;;;9.89;100.00;101923.63;4763590;30;20052;-65
2024/02/05 09:50:01;;;;;;;43.90;8.90;;;;;;;9.88;100.00;101924.69;4759329;30;20079;-61
2024/02/05 09:52:49;;;;;;;30.85;7.50;;;;;;;9.88;100.00;101932.84;4770517;30;20047;-62
2024/02/05 09:55:38;;;;;;;36.05;7.72;;;;;;;9.87;100.00;101932.03;4785005;30;20051;-66
2024/02/05 09:58:27;;;;;;;26.73;7.75;;;;;;;9.87;100.00;101926.59;4768952;30;20070;-66
2024/02/05 10:01:16;;;;;;;122.70;16.45;;;;;;;9.85;100.00;101927.88;4751736;30;20056;-66
2024/02/05 10:04:08;;;;;;;37.85;7.30;;;;;;;9.89;100.00;101918.19;4765515;30;20130;-66
2024/02/05 10:06:56;;;;;;;38.50;7.82;;;;;;;9.92;100.00;101923.16;4769527;30;20062;-67
2024/02/05 10:09:46;;;;;;;51.42;11.23;;;;;;;9.92;100.00;101913.09;4767272;30;20155;-66
2024/02/05 10:12:37;;;;;;;39.20;7.53;;;;;;;9.95;100.00;101911.78;4777114;30;20505;-66
2024/02/05 10:15:25;;;;;;;38.83;7.35;;;;;;;9.99;100.00;101912.97;4785949;30;20059;-66
2024/02/05 10:18:13;;;;;;;35.83;7.78;;;;;;;9.99;100.00;101913.78;4786050;29;20052;-65
2024/02/05 10:21:03;;;;;;;37.28;8.07;;;;;;;10.02;100.00;101901.59;4772764;30;20117;-66
2024/02/05 10:23:55;;;;;;;27.75;7.00;;;;;;;10.01;100.00;101899.97;4766644;29;20095;-66
2024/02/05 10:26:43;;;;;;;38.25;8.13;;;;;;;10.04;100.00;101888.56;4756274;30;20505;-65
2024/02/05 10:29:31;;;;;;;34.92;7.78;;;;;;;10.02;100.00;101901.59;4758977;30;20063;-67
2024/02/05 10:32:22;;;;;;;37.72;8.25;;;;;;;10.06;100.00;101897.34;4771381;30;20084;-67
2024/02/05 10:35:10;;;;;;;32.15;7.40;;;;;;;10.05;100.00;101901.13;4773947;30;20090;-67
2024/02/05 10:38:11;;;;;;;22.65;6.30;;;;;;;10.11;100.00;101896.63;4782909;30;20142;-67
2024/02/05 10:40:59;;;;;;;41.30;9.07;;;;;;;10.08;100.00;101908.84;4778081;29;20062;-67
2024/02/05 10:43:47;;;;;;;45.67;8.30;;;;;;;10.10;100.00;101909.44;4771119;30;20051;-68
2024/02/05 10:46:35;;;;;;;56.78;9.93;;;;;;;10.10;100.00;101909.44;4766511;30;20055;-67
2024/02/05 10:49:23;;;;;;;55.45;9.40;;;;;;;10.09;100.00;101913.19;4771586;30;20060;-66
2024/02/05 10:52:13;;;;;;;39.53;7.82;;;;;;;10.13;100.00;101913.56;4772165;30;20060;-66
2024/02/05 10:55:06;;;;;;;38.60;8.85;;;;;;;10.14;100.00;101910.59;4772856;30;20189;-66
2024/02/05 10:57:56;;;;;;;41.28;8.02;;;;;;;10.18;100.00;101900.88;4772511;30;20113;-66
2024/02/05 11:00:44;;;;;;;44.95;9.13;;;;;;;10.21;100.00;101903.13;4770390;30;20058;-67
2024/02/05 11:03:37;;;;;;;33.67;7.63;;;;;;;10.23;100.00;101892.81;4770232;30;20606;-66
2024/02/05 11:06:25;;;;;;;38.22;8.60;;;;;;;10.24;100.00;101897.19;4771844;30;20096;-66
2024/02/05 11:09:15;;;;;;;29.10;7.88;;;;;;;10.19;100.00;101885.34;4770659;30;20047;-66
2024/02/05 11:12:04;;;;;;;29.58;7.68;;;;;;;10.22;100.00;101877.56;4772846;29;20086;-66
2024/02/05 11:14:56;;;;;;;32.78;7.88;;;;;;;10.28;100.00;101864.03;4759732;30;20063;-66
2024/02/05 11:17:44;;;;;;;32.45;7.82;;;;;;;10.28;100.00;101866.75;4759121;30;20197;-66
2024/02/05 11:20:32;;;;;;;29.23;7.43;;;;;;;10.28;100.00;101864.91;4771431;30;20095;-67
2024/02/05 11:23:22;;;;;;;29.58;8.07;;;;;;;10.29;100.00;101858.38;4764844;30;20046;-67
2024/02/05 11:26:10;;;;;;;34.30;7.97;;;;;;;10.34;100.00;101858.50;4767855;30;20444;-66
2024/02/05 11:28:58;;;;;;;30.60;7.32;;;;;;;10.36;100.00;101841.88;4772127;30;20194;-66
2024/02/05 11:31:46;;;;;;;34.28;8.00;;;;;;;10.31;100.00;101839.88;4769855;30;20058;-67
2024/02/05 11:34:40;;;;;;;28.30;7.15;;;;;;;10.34;100.00;101839.44;4770658;30;20059;-66
2024/02/05 11:37:28;;;;;;;35.40;7.78;;;;;;;10.40;100.00;101827.53;4770292;30;20410;-65
2024/02/05 11:40:21;;;;;;;27.00;6.72;;;;;;;10.55;100.00;101821.56;4759134;30;20044;-65
2024/02/05 11:43:10;;;;;;;39.10;8.13;;;;;;;10.49;100.00;101821.72;4761334;30;20054;-66
2024/02/05 11:45:58;;;;;;;30.75;7.93;;;;;;;10.45;100.00;101813.19;4759902;30;20394;-65
2024/02/05 11:48:46;;;;;;;32.63;7.10;;;;;;;10.37;100.00;101799.97;4771107;30;20048;-67
2024/02/05 11:51:39;;;;;;;31.60;7.85;;;;;;;10.34;100.00;101798.56;4771910;30;20109;-67
2024/02/05 11:54:31;;;;;;;41.40;8.07;;;;;;;10.33;100.00;101783.28;4771203;30;20055;-67
2024/02/05 11:57:19;;;;;;;37.33;7.00;;;;;;;10.36;100.00;101782.78;4759227;29;20387;-67
2024/02/05 12:00:07;;;;;;;29.63;6.72;;;;;;;10.43;100.00;101774.47;4771885;30;20055;-68
2024/02/05 12:02:55;;;;;;;38.15;7.68;;;;;;;10.52;100.00;101769.47;4770137;30;20506;-68
2024/02/05 12:05:45;;;;;;;28.15;7.28;;;;;;;10.55;100.00;101769.78;4767831;30;20281;-69
2024/02/05 12:08:33;;;;;;;28.45;6.57;;;;;;;10.55;100.00;101780.69;4787442;30;20544;-68
2024/02/05 12:11:22;;;;;;;23.77;6.25;;;;;;;10.54;100.00;101778.22;4789410;30;20112;-68
2024/02/05 12:14:13;;;;;;;35.97;7.50;;;;;;;10.57;100.00;101759.47;4775291;30;20603;-68
2024/02/05 12:17:12;;;;;;;52.20;9.82;;;;;;;10.58;100.00;101765.75;4758784;30;20505;-68
2024/02/05 12:20:01;;;;;;;48.40;9.95;;;;;;;10.64;100.00;101771.03;4771196;30;20105;-66
2024/02/05 12:22:49;;;;;;;25.52;6.93;;;;;;;10.71;100.00;101770.09;4770452;30;20097;-68
2024/02/05 12:25:37;;;;;;;47.85;7.97;;;;;;;10.73;100.00;101773.41;4770399;30;20047;-68
2024/02/05 12:28:30;;;;;;;32.25;6.47;;;;;;;10.78;100.00;101774.28;4769348;30;20056;-68
2024/02/05 12:31:19;;;;;;;29.50;7.10;;;;;;;10.86;100.00;101762.16;4758550;30;20055;-67
2024/02/05 12:34:11;;;;;;;32.50;7.15;;;;;;;10.90;100.00;101774.22;4769274;30;20066;-68
2024/02/05 12:36:59;;;;;;;33.80;7.18;;;;;;;10.92;100.00;101769.38;4769575;30;20114;-68
2024/02/05 12:39:51;;;;;;;20.60;5.72;;;;;;;10.91;100.00;101773.16;4739907;30;20049;-68
2024/02/05 12:42:39;;;;;;;33.55;7.65;;;;;;;10.88;100.00;101752.66;4768880;30;20052;-67
2024/02/05 12:45:27;;;;;;;28.52;6.55;;;;;;;10.92;100.00;101763.06;4768596;30;20051;-68
2024/02/05 12:48:15;;;;;;;440.20;52.10;;;;;;;10.97;100.00;101755.81;4768312;30;20155;-68
2024/02/05 12:51:03;;;;;;;38.40;7.93;;;;;;;11.02;100.00;101753.16;4755641;30;20181;-68